createdAt,value
2023-02-14T00:00:48.562Z,15.93
2023-02-14T00:03:51.136Z,16.02
2023-02-14T00:06:53.317Z,15.23
2023-02-14T00:09:55.744Z,15.75
2023-02-14T00:12:57.933Z,17.30
2023-02-14T00:16:00.431Z,13.68
2023-02-14T00:19:03.253Z,17.00
2023-02-14T00:22:05.911Z,18.80
2023-02-14T00:25:08.208Z,17.58
2023-02-14T00:28:10.737Z,18.12
2023-02-14T00:31:13.130Z,16.73
2023-02-14T00:34:17.578Z,18.30
2023-02-14T00:37:19.751Z,14.55
2023-02-14T00:40:22.390Z,16.77
2023-02-14T00:43:24.605Z,16.23
2023-02-14T00:46:27.673Z,20.62
2023-02-14T00:49:30.980Z,15.68
2023-02-14T00:55:36.503Z,17.50
2023-02-14T00:58:39.521Z,13.98
2023-02-14T01:01:42.169Z,22.70
2023-02-14T01:04:44.863Z,14.98
2023-02-14T01:07:47.052Z,17.92
2023-02-14T01:10:49.784Z,22.60
2023-02-14T01:13:55.416Z,19.37
2023-02-14T01:16:58.995Z,18.55
2023-02-14T01:20:01.153Z,18.27
2023-02-14T01:23:07.536Z,20.35
2023-02-14T01:26:10.357Z,23.58
2023-02-14T01:29:12.849Z,20.17
2023-02-14T01:32:15.109Z,22.50
2023-02-14T01:35:18.603Z,15.82
2023-02-14T01:38:20.821Z,21.33
2023-02-14T01:41:25.094Z,19.15
2023-02-14T01:44:28.845Z,16.98
2023-02-14T01:47:36.628Z,19.20
2023-02-14T01:50:42.931Z,15.55
2023-02-14T01:53:45.711Z,19.55
2023-02-14T01:56:51.224Z,21.37
2023-02-14T02:00:17.697Z,22.62
2023-02-14T02:03:21.205Z,15.68
2023-02-14T02:06:31.239Z,15.98
2023-02-14T02:09:39.481Z,17.92
2023-02-14T02:12:41.838Z,16.60
2023-02-14T02:16:18.472Z,15.68
2023-02-14T02:19:55.145Z,16.83
2023-02-14T02:23:28.760Z,15.60
2023-02-14T02:26:56.641Z,19.30
2023-02-14T02:30:29.479Z,18.17
2023-02-14T02:33:53.152Z,16.58
2023-02-14T02:37:46.412Z,14.93
2023-02-14T02:41:00.103Z,16.90
2023-02-14T02:44:21.604Z,16.77
2023-02-14T02:47:41.779Z,15.07
2023-02-14T02:51:08.150Z,20.85
2023-02-14T02:54:31.912Z,17.25
2023-02-14T02:57:39.332Z,20.02
2023-02-14T03:00:43.217Z,20.05
2023-02-14T03:04:08.532Z,20.23
2023-02-14T03:07:29.494Z,17.25
2023-02-14T03:10:36.638Z,19.02
2023-02-14T03:14:10.880Z,20.40
2023-02-14T03:17:39.846Z,13.25
2023-02-14T03:21:06.986Z,14.85
2023-02-14T03:24:30.448Z,17.98
2023-02-14T03:28:00.648Z,18.73
2023-02-14T03:31:12.795Z,19.40
2023-02-14T03:34:44.589Z,18.73
2023-02-14T03:38:17.467Z,16.55
2023-02-14T03:41:25.359Z,17.25
2023-02-14T03:44:30.967Z,13.82
2023-02-14T03:47:36.989Z,17.90
2023-02-14T03:50:42.414Z,14.20
2023-02-14T03:53:50.021Z,19.48
2023-02-14T03:56:59.845Z,12.77
2023-02-14T04:00:03.311Z,14.70
2023-02-14T04:03:18.136Z,16.80
2023-02-14T04:06:22.009Z,17.00
2023-02-14T04:09:24.389Z,17.42
2023-02-14T04:12:37.497Z,19.77
2023-02-14T04:15:40.447Z,19.30
2023-02-14T04:19:01.352Z,17.33
2023-02-14T04:22:03.660Z,17.45
2023-02-14T04:25:06.386Z,22.13
2023-02-14T04:28:09.105Z,18.75
2023-02-14T04:31:11.927Z,15.15
2023-02-14T04:34:15.812Z,20.23
2023-02-14T04:37:27.202Z,19.57
2023-02-14T04:40:29.956Z,23.23
2023-02-14T04:43:32.448Z,23.45
2023-02-14T04:46:34.830Z,21.20
2023-02-14T04:49:37.511Z,20.87
2023-02-14T04:52:39.973Z,19.70
2023-02-14T04:55:42.686Z,20.65
2023-02-14T04:58:45.407Z,21.02
2023-02-14T05:01:47.922Z,23.25
2023-02-14T05:04:50.172Z,16.98
2023-02-14T05:07:52.703Z,17.40
2023-02-14T05:10:55.079Z,21.33
2023-02-14T05:13:57.725Z,20.02
2023-02-14T05:17:00.340Z,19.48
2023-02-14T05:20:05.817Z,20.12
2023-02-14T05:23:13.471Z,21.70
2023-02-14T05:26:16.022Z,20.95
2023-02-14T05:29:18.170Z,16.92
2023-02-14T05:32:20.635Z,20.92
2023-02-14T05:35:22.938Z,21.65
2023-02-14T05:38:25.373Z,20.58
2023-02-14T05:41:27.562Z,22.37
2023-02-14T05:44:30.012Z,22.00
2023-02-14T05:47:34.160Z,24.45
2023-02-14T05:50:36.661Z,15.55
2023-02-14T05:53:39.027Z,20.25
2023-02-14T05:56:41.485Z,26.07
2023-02-14T05:59:43.727Z,20.58
2023-02-14T06:02:46.262Z,26.23
2023-02-14T06:05:48.870Z,19.52
2023-02-14T06:08:51.020Z,19.45
2023-02-14T06:11:55.268Z,20.90
2023-02-14T06:14:57.598Z,21.42
2023-02-14T06:18:00.285Z,24.50
2023-02-14T06:21:02.793Z,22.98
2023-02-14T06:24:05.317Z,20.17
2023-02-14T06:27:07.898Z,21.00
2023-02-14T06:30:11.691Z,22.60
2023-02-14T06:33:14.358Z,17.23
2023-02-14T06:36:16.900Z,16.52
2023-02-14T06:39:19.178Z,22.40
2023-02-14T06:42:21.683Z,16.70
2023-02-14T06:45:23.894Z,17.65
2023-02-14T06:48:26.518Z,19.30
2023-02-14T06:51:28.942Z,19.67
2023-02-14T06:54:31.864Z,20.27
2023-02-14T06:57:34.168Z,20.80
2023-02-14T07:00:36.648Z,17.02
2023-02-14T07:03:38.815Z,19.40
2023-02-14T07:06:41.362Z,18.45
2023-02-14T07:09:44.108Z,22.93
2023-02-14T07:12:46.601Z,19.63
2023-02-14T07:15:48.889Z,23.45
2023-02-14T07:18:51.413Z,25.70
2023-02-14T07:21:53.926Z,21.27
2023-02-14T07:24:56.514Z,23.30
2023-02-14T07:27:58.844Z,25.75
2023-02-14T07:31:02.051Z,22.73
2023-02-14T07:34:04.803Z,23.00
2023-02-14T07:37:08.534Z,19.77
2023-02-14T07:40:14.942Z,22.40
2023-02-14T07:43:19.956Z,21.98
2023-02-14T07:46:22.483Z,23.08
2023-02-14T07:49:25.092Z,21.55
2023-02-14T07:52:27.413Z,25.05
2023-02-14T07:55:29.922Z,23.15
2023-02-14T07:58:32.235Z,24.10
2023-02-14T08:01:34.756Z,21.12
2023-02-14T08:04:37.429Z,24.93
2023-02-14T08:07:39.602Z,19.15
2023-02-14T08:10:42.414Z,21.85
2023-02-14T08:13:44.662Z,27.95
2023-02-14T08:16:47.588Z,22.90
2023-02-14T08:19:49.835Z,21.95
2023-02-14T08:22:52.462Z,18.47
2023-02-14T08:25:54.955Z,21.70
2023-02-14T08:28:57.475Z,21.70
2023-02-14T08:32:00.906Z,17.90
2023-02-14T08:35:04.317Z,19.75
2023-02-14T08:38:06.792Z,19.48
2023-02-14T08:41:09.706Z,17.73
2023-02-14T08:44:11.976Z,18.43
2023-02-14T08:47:14.780Z,17.33
2023-02-14T08:50:18.875Z,16.15
2023-02-14T08:53:22.225Z,18.95
2023-02-14T08:56:24.964Z,17.90
2023-02-14T08:59:27.467Z,21.60
2023-02-14T09:02:29.623Z,20.12
2023-02-14T09:05:33.653Z,22.05
2023-02-14T09:08:39.430Z,19.23
2023-02-14T09:11:42.007Z,19.62
2023-02-14T09:14:44.782Z,18.20
2023-02-14T09:17:47.887Z,18.45
2023-02-14T09:20:50.217Z,18.20
2023-02-14T09:23:53.380Z,19.43
2023-02-14T09:26:57.312Z,21.70
2023-02-14T09:29:59.959Z,20.85
2023-02-14T09:33:05.301Z,19.50
2023-02-14T09:36:20.398Z,21.45
2023-02-14T09:39:22.683Z,23.42
2023-02-14T09:42:37.867Z,21.60
2023-02-14T09:45:40.533Z,24.42
2023-02-14T09:48:47.387Z,20.05
2023-02-14T09:51:53.155Z,26.05
2023-02-14T09:55:01.128Z,19.87
2023-02-14T09:58:31.317Z,20.98
2023-02-14T10:01:42.755Z,17.70
2023-02-14T10:05:06.386Z,16.48
2023-02-14T10:08:28.230Z,16.10
2023-02-14T10:11:31.495Z,18.73
2023-02-14T10:14:40.831Z,18.02
2023-02-14T10:17:56.889Z,17.85
2023-02-14T10:21:01.990Z,16.40
2023-02-14T10:24:21.214Z,13.85
2023-02-14T10:27:34.055Z,15.27
2023-02-14T10:30:39.680Z,17.83
2023-02-14T10:33:47.364Z,14.45
2023-02-14T10:37:05.142Z,16.37
2023-02-14T10:40:17.509Z,16.83
2023-02-14T10:43:44.756Z,20.58
2023-02-14T10:46:59.018Z,18.87
2023-02-14T10:50:34.129Z,14.05
2023-02-14T10:53:38.998Z,14.93
2023-02-14T10:57:00.987Z,15.30
2023-02-14T11:00:17.024Z,15.77
2023-02-14T11:03:20.151Z,17.77
2023-02-14T11:06:22.434Z,16.80
2023-02-14T11:09:24.961Z,15.37
2023-02-14T11:12:40.211Z,17.08
2023-02-14T11:15:50.745Z,16.00
2023-02-14T11:19:19.004Z,14.18
2023-02-14T11:22:30.531Z,15.20
2023-02-14T11:25:35.249Z,13.95
2023-02-14T11:28:48.803Z,11.07
2023-02-14T11:31:51.892Z,12.60
2023-02-14T11:34:57.953Z,13.13
2023-02-14T11:38:05.269Z,13.82
2023-02-14T11:41:12.010Z,11.50
2023-02-14T11:44:24.064Z,13.50
2023-02-14T11:47:29.928Z,10.93
2023-02-14T11:50:32.224Z,9.35
2023-02-14T11:53:49.222Z,9.57
2023-02-14T11:57:01.010Z,9.38
2023-02-14T12:00:15.879Z,9.65
2023-02-14T12:03:19.549Z,10.68
2023-02-14T12:06:31.298Z,11.07
2023-02-14T12:09:35.127Z,11.50
2023-02-14T12:12:37.521Z,13.20
2023-02-14T12:15:49.899Z,11.68
2023-02-14T12:19:20.619Z,10.63
2023-02-14T12:22:32.576Z,11.10
2023-02-14T12:25:50.000Z,12.13
2023-02-14T12:29:29.450Z,12.82
2023-02-14T12:32:32.697Z,10.48
2023-02-14T12:36:03.772Z,12.25
2023-02-14T12:39:22.392Z,10.90
2023-02-14T12:42:57.337Z,12.00
2023-02-14T12:46:06.928Z,11.82
2023-02-14T12:49:40.040Z,12.27
2023-02-14T12:52:55.452Z,11.73
2023-02-14T12:56:11.587Z,12.05
2023-02-14T12:59:40.727Z,12.55
2023-02-14T13:03:18.538Z,13.65
2023-02-14T13:06:28.095Z,13.95
2023-02-14T13:09:45.676Z,10.30
2023-02-14T13:13:06.057Z,12.80
2023-02-14T13:16:36.455Z,14.20
2023-02-14T13:20:04.579Z,12.70
2023-02-14T13:23:22.737Z,16.00
2023-02-14T13:26:34.980Z,12.65
2023-02-14T13:29:47.050Z,12.27
2023-02-14T13:32:51.355Z,13.70
2023-02-14T13:35:57.044Z,13.65
2023-02-14T13:39:00.468Z,15.10
2023-02-14T13:42:03.304Z,13.13
2023-02-14T13:45:06.614Z,13.77
2023-02-14T13:48:15.338Z,13.35
2023-02-14T13:51:17.792Z,14.05
2023-02-14T13:54:42.409Z,13.30
2023-02-14T13:57:45.299Z,12.45
2023-02-14T14:00:50.804Z,16.87
2023-02-14T14:04:20.338Z,13.30
2023-02-14T14:07:30.773Z,11.45
2023-02-14T14:10:48.748Z,14.50
2023-02-14T14:13:54.999Z,13.68
2023-02-14T14:16:59.502Z,15.05
2023-02-14T14:20:04.658Z,12.48
2023-02-14T14:23:37.371Z,15.57
2023-02-14T14:26:42.857Z,13.05
2023-02-14T14:29:57.329Z,14.18
2023-02-14T14:33:32.335Z,14.90
2023-02-14T14:36:34.850Z,14.23
2023-02-14T14:39:39.890Z,10.95
2023-02-14T14:42:42.841Z,14.90
2023-02-14T14:45:51.494Z,14.80
2023-02-14T14:48:55.866Z,15.77
2023-02-14T14:51:58.198Z,15.98
2023-02-14T14:55:04.329Z,16.33
2023-02-14T14:58:31.857Z,15.57
2023-02-14T15:01:40.055Z,15.90
2023-02-14T15:04:42.303Z,15.13
2023-02-14T15:07:45.984Z,13.75
2023-02-14T15:10:56.881Z,16.85
2023-02-14T15:13:59.740Z,15.52
2023-02-14T15:17:12.771Z,14.55
2023-02-14T15:20:21.698Z,16.25
2023-02-14T15:23:25.125Z,15.25
2023-02-14T15:26:31.602Z,16.08
2023-02-14T15:29:33.925Z,13.50
2023-02-14T15:32:38.067Z,14.55
2023-02-14T15:35:42.377Z,16.67
2023-02-14T15:38:45.690Z,15.05
2023-02-14T15:41:47.961Z,15.98
2023-02-14T15:44:50.469Z,18.27
2023-02-14T15:47:58.932Z,17.60
2023-02-14T15:51:04.791Z,17.75
2023-02-14T15:54:19.856Z,16.65
2023-02-14T15:57:29.760Z,17.40
2023-02-14T16:00:33.114Z,13.38
2023-02-14T16:03:49.424Z,14.35
2023-02-14T16:07:08.512Z,15.82
2023-02-14T16:10:20.183Z,16.37
2023-02-14T16:13:31.172Z,18.15
2023-02-14T16:16:57.625Z,15.90
2023-02-14T16:20:00.056Z,15.30
2023-02-14T16:23:21.365Z,15.13
2023-02-14T16:26:23.682Z,15.50
2023-02-14T16:29:26.233Z,15.90
2023-02-14T16:32:28.593Z,15.90
2023-02-14T16:35:31.437Z,13.10
2023-02-14T16:38:41.308Z,13.02
2023-02-14T16:41:47.499Z,18.83
2023-02-14T16:44:50.683Z,15.15
2023-02-14T16:47:53.097Z,12.68
2023-02-14T16:50:55.419Z,15.15
2023-02-14T16:54:00.496Z,14.15
2023-02-14T16:57:03.891Z,13.93
2023-02-14T17:00:08.273Z,14.40
2023-02-14T17:03:11.667Z,15.80
2023-02-14T17:06:19.332Z,12.35
2023-02-14T17:09:26.081Z,11.98
2023-02-14T17:12:33.195Z,14.15
2023-02-14T17:15:35.712Z,15.70
2023-02-14T17:18:39.545Z,16.17
2023-02-14T17:21:42.091Z,14.93
2023-02-14T17:24:44.635Z,15.30
2023-02-14T17:27:46.872Z,13.70
2023-02-14T17:30:49.411Z,13.73
2023-02-14T17:33:51.580Z,16.17
2023-02-14T17:36:54.261Z,14.73
2023-02-14T17:39:56.564Z,14.70
2023-02-14T17:43:00.264Z,14.75
2023-02-14T17:46:05.449Z,18.42
2023-02-14T17:49:09.447Z,20.77
2023-02-14T17:52:12.077Z,18.48
2023-02-14T17:55:16.102Z,17.87
2023-02-14T18:01:23.655Z,21.25
2023-02-14T18:04:30.017Z,21.35
2023-02-14T18:07:32.694Z,25.92
2023-02-14T18:10:37.605Z,25.73
2023-02-14T18:13:40.264Z,18.77
2023-02-14T18:16:43.666Z,20.60
2023-02-14T18:19:46.714Z,21.40
2023-02-14T18:22:49.509Z,22.52
2023-02-14T18:25:55.589Z,23.98
2023-02-14T18:28:59.124Z,24.30
2023-02-14T18:32:01.528Z,22.93
2023-02-14T18:35:04.185Z,22.07
2023-02-14T18:38:07.904Z,22.27
2023-02-14T18:41:13.266Z,22.52
2023-02-14T18:44:15.451Z,26.92
2023-02-14T18:47:18.170Z,19.30
2023-02-14T18:50:20.431Z,27.08
2023-02-14T18:53:22.943Z,26.75
2023-02-14T18:56:29.525Z,21.27
2023-02-14T18:59:32.169Z,22.50
2023-02-14T19:02:36.072Z,25.27
2023-02-14T19:05:38.619Z,22.45
2023-02-14T19:08:41.758Z,24.90
2023-02-14T19:11:44.742Z,20.27
2023-02-14T19:14:46.922Z,26.07
2023-02-14T19:17:49.653Z,28.15
2023-02-14T19:20:52.097Z,30.77
2023-02-14T19:23:58.446Z,24.70
2023-02-14T19:27:00.783Z,29.67
2023-02-14T19:30:03.421Z,27.27
2023-02-14T19:33:05.673Z,28.08
2023-02-14T19:36:12.804Z,33.90
2023-02-14T19:39:15.543Z,35.60
2023-02-14T19:42:18.138Z,34.65
2023-02-14T19:45:20.295Z,31.85
2023-02-14T19:48:23.361Z,33.83
2023-02-14T19:51:28.827Z,32.55
2023-02-14T19:54:31.382Z,34.55
2023-02-14T19:57:33.626Z,28.45
2023-02-14T20:00:37.954Z,40.75
2023-02-14T20:03:40.419Z,30.73
2023-02-14T20:06:43.507Z,33.55
2023-02-14T20:09:46.300Z,31.92
2023-02-14T20:12:48.638Z,27.52
2023-02-14T20:15:51.832Z,31.73
2023-02-14T20:18:54.504Z,31.02
2023-02-14T20:21:57.769Z,32.83
2023-02-14T20:25:00.106Z,29.83
2023-02-14T20:28:02.616Z,34.30
2023-02-14T20:31:13.546Z,34.67
2023-02-14T20:34:16.562Z,34.28
2023-02-14T20:37:18.853Z,30.93
2023-02-14T20:40:21.492Z,33.38
2023-02-14T20:43:24.824Z,30.30
2023-02-14T20:49:31.141Z,29.60
2023-02-14T20:52:36.247Z,34.97
2023-02-14T20:55:41.755Z,28.27
2023-02-14T20:58:45.029Z,33.03
2023-02-14T21:01:47.469Z,34.95
2023-02-14T21:04:50.178Z,32.00
2023-02-14T21:07:52.489Z,33.22
2023-02-14T21:10:55.049Z,34.60
2023-02-14T21:13:59.973Z,31.92
2023-02-14T21:17:04.372Z,35.10
2023-02-14T21:20:07.519Z,41.78
2023-02-14T21:23:10.142Z,34.75
2023-02-14T21:26:12.412Z,30.30
2023-02-14T21:29:14.923Z,36.35
2023-02-14T21:32:17.280Z,35.28
2023-02-14T21:35:20.212Z,32.83
2023-02-14T21:38:22.703Z,33.33
2023-02-14T21:41:29.504Z,35.28
2023-02-14T21:44:50.453Z,30.65
2023-02-14T21:48:11.585Z,31.92
2023-02-14T21:51:15.403Z,36.63
2023-02-14T21:54:18.064Z,34.53
2023-02-14T21:57:20.293Z,38.33
2023-02-14T22:00:22.807Z,35.25
2023-02-14T22:03:25.716Z,29.30
2023-02-14T22:06:28.925Z,34.33
2023-02-14T22:09:31.430Z,33.55
2023-02-14T22:12:33.997Z,34.35
2023-02-14T22:15:40.000Z,39.50
2023-02-14T22:18:42.796Z,36.58
2023-02-14T22:21:45.455Z,36.05
2023-02-14T22:24:48.492Z,33.20
2023-02-14T22:27:51.067Z,37.70
2023-02-14T22:30:53.306Z,32.10
2023-02-14T22:33:56.259Z,34.97
2023-02-14T22:36:58.462Z,38.15
2023-02-14T22:40:00.923Z,34.90
2023-02-14T22:43:03.105Z,32.97
2023-02-14T22:46:19.258Z,61.45
2023-02-14T22:49:21.509Z,37.28
2023-02-14T22:52:24.057Z,33.97
2023-02-14T22:55:26.625Z,35.20
2023-02-14T22:58:29.099Z,48.08
2023-02-14T23:01:32.619Z,35.13
2023-02-14T23:04:35.206Z,42.45
2023-02-14T23:07:37.701Z,31.98
2023-02-14T23:10:40.283Z,31.93
2023-02-14T23:14:01.144Z,34.40
2023-02-14T23:17:25.122Z,31.52
2023-02-14T23:20:46.253Z,34.70
2023-02-14T23:23:48.726Z,36.03
2023-02-14T23:26:51.024Z,30.52
2023-02-14T23:29:53.540Z,34.05
2023-02-14T23:32:55.731Z,34.65
2023-02-14T23:36:02.747Z,35.08
2023-02-14T23:39:05.632Z,42.60
2023-02-14T23:42:17.866Z,33.35
2023-02-14T23:45:35.223Z,36.35
2023-02-14T23:48:38.529Z,34.15
2023-02-14T23:51:41.522Z,36.00
2023-02-14T23:54:44.560Z,35.40
2023-02-14T23:57:46.773Z,40.73
